createdAt,value
2022-09-05T00:02:36.264Z,94298.92
2022-09-05T00:08:08.257Z,94291.13
2022-09-05T00:13:27.921Z,94297.11
2022-09-05T00:24:20.975Z,94294.20
2022-09-05T00:24:50.297Z,94288.18
2022-09-05T00:31:07.556Z,94290.89
2022-09-05T00:35:30.446Z,94289.80
2022-09-05T00:40:50.249Z,94289.22
2022-09-05T00:46:04.651Z,94287.98
2022-09-05T00:51:34.874Z,94291.69
2022-09-05T00:57:29.673Z,94294.46
2022-09-05T01:03:18.337Z,94294.67
2022-09-05T01:08:56.417Z,94294.74
2022-09-05T01:14:36.027Z,94296.88
2022-09-05T01:20:29.912Z,94299.91
2022-09-05T01:26:06.575Z,94296.57
2022-09-05T01:31:32.742Z,94297.16
2022-09-05T01:37:24.953Z,94296.02
2022-09-05T01:42:42.372Z,94294.86
2022-09-05T01:48:08.517Z,94301.25
2022-09-05T01:53:41.885Z,94295.13
2022-09-05T01:59:07.847Z,94294.36
2022-09-05T02:04:44.177Z,94296.94
2022-09-05T02:10:29.845Z,94299.37
2022-09-05T02:16:04.531Z,94305.52
2022-09-05T02:21:33.710Z,94297.67
2022-09-05T02:28:03.540Z,94291.20
2022-09-05T02:32:43.152Z,94283.55
2022-09-05T02:38:56.702Z,94284.61
2022-09-05T02:45:21.360Z,94280.34
2022-09-05T02:49:26.189Z,94281.17
2022-09-05T02:57:42.484Z,94282.24
2022-09-05T02:59:51.548Z,94281.73
2022-09-05T03:05:15.084Z,94270.03
2022-09-05T03:10:54.170Z,94282.88
2022-09-05T03:16:47.590Z,94277.30
2022-09-05T03:22:22.504Z,94272.13
2022-09-05T03:27:55.532Z,94272.31
2022-09-05T03:33:26.193Z,94269.66
2022-09-05T03:38:59.463Z,94262.81
2022-09-05T03:44:43.560Z,94261.16
2022-09-05T03:54:22.962Z,94252.41
2022-09-05T03:57:16.116Z,94248.06
2022-09-05T04:06:02.578Z,94243.91
2022-09-05T04:08:17.181Z,94245.00
2022-09-05T04:12:27.167Z,94247.00
2022-09-05T04:17:47.600Z,94252.55
2022-09-05T04:23:15.239Z,94256.78
2022-09-05T04:29:15.349Z,94259.73
2022-09-05T04:35:05.915Z,94272.95
2022-09-05T04:40:53.235Z,94272.17
2022-09-05T04:46:04.533Z,94277.96
2022-09-05T04:51:16.030Z,94287.47
2022-09-05T04:56:29.147Z,94286.08
2022-09-05T05:06:15.300Z,94295.11
2022-09-05T05:07:27.277Z,94279.53
2022-09-05T05:17:56.908Z,94275.09
2022-09-05T05:18:56.495Z,94274.81
2022-09-05T05:24:12.398Z,94279.09
2022-09-05T05:29:25.540Z,94295.12
2022-09-05T05:34:44.052Z,94292.44
2022-09-05T05:40:15.902Z,94297.33
2022-09-05T05:45:32.000Z,94300.62
2022-09-05T05:51:14.171Z,94300.13
2022-09-05T05:56:41.416Z,94291.84
2022-09-05T06:02:07.318Z,94298.67
2022-09-05T06:07:27.376Z,94300.79
2022-09-05T06:14:55.646Z,94294.77
2022-09-05T06:18:56.925Z,94295.33
2022-09-05T06:24:26.162Z,94291.75
2022-09-05T06:29:59.241Z,94292.41
2022-09-05T06:35:32.611Z,94289.09
2022-09-05T06:41:12.041Z,94303.56
2022-09-05T06:46:54.900Z,94312.32
2022-09-05T06:52:40.412Z,94315.69
2022-09-05T06:58:37.779Z,94310.70
2022-09-05T07:05:19.857Z,94306.47
2022-09-05T07:09:50.737Z,94308.52
2022-09-05T07:15:08.483Z,94306.87
2022-09-05T07:20:28.682Z,94316.84
2022-09-05T07:25:37.391Z,94322.60
2022-09-05T07:30:51.942Z,94327.63
2022-09-05T07:36:09.092Z,94328.30
2022-09-05T07:41:28.723Z,94329.28
2022-09-05T07:46:39.592Z,94321.94
2022-09-05T07:56:46.627Z,94322.19
2022-09-05T08:02:15.707Z,94320.38
2022-09-05T08:07:47.674Z,94321.68
2022-09-05T08:13:23.852Z,94328.30
2022-09-05T08:18:23.105Z,94328.22
2022-09-05T08:24:25.136Z,94322.15
2022-09-05T08:29:45.279Z,94327.23
2022-09-05T08:35:11.241Z,94329.16
2022-09-05T08:40:39.642Z,94327.67
2022-09-05T08:46:47.035Z,94324.03
2022-09-05T08:51:24.907Z,94322.37
2022-09-05T08:56:50.929Z,94325.99
2022-09-05T09:02:46.749Z,94322.33
2022-09-05T09:08:02.626Z,94312.65
2022-09-05T09:13:16.749Z,94308.81
2022-09-05T09:18:25.501Z,94315.39
2022-09-05T09:23:51.715Z,94310.52
2022-09-05T09:29:09.097Z,94313.95
2022-09-05T09:34:36.788Z,94305.28
2022-09-05T09:40:10.932Z,94307.31
2022-09-05T09:45:31.698Z,94303.20
2022-09-05T09:51:07.067Z,94304.31
2022-09-05T09:57:06.142Z,94307.34
2022-09-05T10:09:32.697Z,94295.05
2022-09-05T10:10:55.123Z,94295.17
2022-09-05T10:14:49.391Z,94285.53
2022-09-05T10:20:13.249Z,94293.91
2022-09-05T10:25:20.091Z,94287.96
2022-09-05T10:33:16.978Z,94287.41
2022-09-05T10:36:26.033Z,94291.71
2022-09-05T10:41:55.506Z,94290.01
2022-09-05T10:47:31.386Z,94290.92
2022-09-05T10:53:00.586Z,94284.48
2022-09-05T10:59:36.469Z,94277.80
2022-09-05T11:03:55.109Z,94275.05
2022-09-05T11:09:18.092Z,94270.80
2022-09-05T11:14:38.911Z,94275.45
2022-09-05T11:19:49.811Z,94268.28
2022-09-05T11:25:02.274Z,94266.43
2022-09-05T11:30:30.310Z,94270.90
2022-09-05T11:39:58.554Z,94267.63
2022-09-05T11:41:21.576Z,94269.45
2022-09-05T11:46:47.681Z,94264.46
2022-09-05T11:52:31.627Z,94266.17
2022-09-05T11:58:02.055Z,94262.50
2022-09-05T12:03:57.544Z,94249.91
2022-09-05T12:14:54.985Z,94257.23
2022-09-05T12:20:17.345Z,94250.46
2022-09-05T12:27:35.701Z,94238.34
2022-09-05T12:31:09.911Z,94230.58
2022-09-05T12:40:44.737Z,94234.25
2022-09-05T12:42:08.387Z,94251.80
2022-09-05T12:42:14.006Z,94232.98
2022-09-05T12:47:19.532Z,94231.33
2022-09-05T12:52:25.308Z,94237.77
2022-09-05T13:02:09.296Z,94231.37
2022-09-05T13:03:27.988Z,94232.88
2022-09-05T13:08:13.587Z,94222.82
2022-09-05T13:14:58.636Z,94214.97
2022-09-05T13:19:06.470Z,94220.95
2022-09-05T13:24:21.894Z,94215.43
2022-09-05T13:29:42.843Z,94219.52
2022-09-05T13:38:11.509Z,94204.41
2022-09-05T13:40:10.096Z,94209.00
2022-09-05T13:45:21.111Z,94204.53
2022-09-05T13:50:34.976Z,94203.39
2022-09-05T13:55:56.741Z,94196.83
2022-09-05T14:01:26.576Z,94202.25
2022-09-05T14:13:02.474Z,94198.44
2022-09-05T14:18:33.835Z,94184.02
2022-09-05T14:23:45.151Z,94187.49
2022-09-05T14:29:25.425Z,94183.14
2022-09-05T14:37:50.096Z,94181.24
2022-09-05T14:40:38.824Z,94174.58
2022-09-05T14:46:08.009Z,94179.11
2022-09-05T14:51:25.657Z,94182.05
2022-09-05T14:59:51.119Z,94181.67
2022-09-05T15:02:50.439Z,94181.01
2022-09-05T15:07:38.522Z,94176.49
2022-09-05T15:13:13.606Z,94179.77
2022-09-05T15:18:27.109Z,94170.32
2022-09-05T15:23:34.981Z,94157.81
2022-09-05T15:28:47.714Z,94154.28
2022-09-05T15:33:57.034Z,94157.28
2022-09-05T15:39:23.828Z,94163.02
2022-09-05T15:44:43.370Z,94161.47
2022-09-05T15:49:54.136Z,94153.34
2022-09-05T15:55:15.681Z,94154.47
2022-09-05T16:00:41.773Z,94153.08
2022-09-05T16:10:50.787Z,94144.23
2022-09-05T16:23:20.672Z,94142.80
2022-09-05T16:23:27.190Z,94136.87
2022-09-05T16:27:48.265Z,94139.73
2022-09-05T16:33:14.193Z,94141.55
2022-09-05T16:38:48.752Z,94144.70
2022-09-05T16:43:42.239Z,94141.38
2022-09-05T16:48:59.472Z,94137.41
2022-09-05T16:54:13.607Z,94134.23
2022-09-05T16:59:28.558Z,94135.44
2022-09-05T17:05:14.341Z,94143.94
2022-09-05T17:10:27.312Z,94141.77
2022-09-05T17:15:52.127Z,94135.40
2022-09-05T17:20:56.580Z,94136.55
2022-09-05T17:29:50.488Z,94126.50
2022-09-05T17:37:15.972Z,94128.50
2022-09-05T17:42:51.731Z,94128.72
2022-09-05T17:47:59.048Z,94130.35
2022-09-05T17:53:25.705Z,94127.45
2022-09-05T17:58:49.166Z,94122.59
2022-09-05T18:03:49.084Z,94131.29
2022-09-05T18:08:56.751Z,94140.70
2022-09-05T18:14:24.878Z,94151.78
2022-09-05T18:19:40.163Z,94161.31
2022-09-05T18:25:16.661Z,94158.32
2022-09-05T18:30:26.745Z,94166.20
2022-09-05T18:35:46.599Z,94171.74
2022-09-05T18:41:00.092Z,94187.83
2022-09-05T18:46:23.189Z,94172.28
2022-09-05T18:51:36.588Z,94198.45
2022-09-05T18:57:13.899Z,94188.45
2022-09-05T19:02:26.884Z,94194.66
2022-09-05T19:07:47.870Z,94193.30
2022-09-05T19:13:19.790Z,94190.73
2022-09-05T19:18:29.444Z,94190.02
2022-09-05T19:23:54.406Z,94192.43
2022-09-05T19:36:52.005Z,94192.16
2022-09-05T19:37:08.543Z,94179.77
2022-09-05T19:43:28.360Z,94183.85
2022-09-05T19:47:45.138Z,94170.07
2022-09-05T19:50:13.415Z,94160.59
2022-09-05T19:55:28.331Z,94176.20
2022-09-05T20:00:35.618Z,94174.46
2022-09-05T20:05:44.125Z,94175.82
2022-09-05T20:10:54.083Z,94177.94
2022-09-05T20:16:02.351Z,94168.78
2022-09-05T20:21:13.297Z,94165.13
2022-09-05T20:26:24.525Z,94166.78
2022-09-05T20:31:35.115Z,94169.95
2022-09-05T20:42:02.433Z,94152.26
2022-09-05T20:43:35.279Z,94139.95
2022-09-05T20:54:05.271Z,94146.67
2022-09-05T20:54:15.139Z,94153.58
2022-09-05T20:58:14.093Z,94147.13
2022-09-05T21:03:34.571Z,94152.18
2022-09-05T21:08:41.947Z,94145.88
2022-09-05T21:13:54.270Z,94148.78
2022-09-05T21:19:01.390Z,94142.09
2022-09-05T21:24:18.139Z,94136.92
2022-09-05T21:29:33.162Z,94135.52
2022-09-05T21:34:49.099Z,94137.47
2022-09-05T21:39:59.152Z,94136.49
2022-09-05T21:47:46.870Z,94130.14
2022-09-05T21:50:30.504Z,94130.21
2022-09-05T21:59:17.433Z,94130.94
2022-09-05T22:00:36.846Z,94131.48
2022-09-05T22:05:43.964Z,94125.88
2022-09-05T22:41:42.760Z,94109.28
2022-09-05T22:46:49.730Z,94106.47
2022-09-05T22:51:59.553Z,94098.77
2022-09-05T22:57:07.406Z,94102.45
2022-09-05T23:02:19.567Z,94102.92
2022-09-05T23:07:26.656Z,94100.69
2022-09-05T23:12:38.576Z,94096.58
2022-09-05T23:17:57.120Z,94096.02
2022-09-05T23:23:09.080Z,94092.80
2022-09-05T23:28:16.154Z,94087.49
2022-09-05T23:33:23.995Z,94079.37
2022-09-05T23:38:31.804Z,94067.55
2022-09-05T23:43:39.124Z,94071.52
2022-09-05T23:48:47.664Z,94063.37
2022-09-05T23:53:55.286Z,94064.78
2022-09-05T23:59:02.646Z,94062.28
